Time;durP1;ratioP1;P1;durP2;ratioP2;P2;SDS_P1;SDS_P2;PMS_P1;PMS_P2;Temp;Humidity;BMP_temperature;BMP_pressure;BME280_temperature;BME280_humidity;BME280_pressure;Samples;Min_cycle;Max_cycle;Signal;HPM_P1;HPM_P2
2022/10/05 00:03:42;;;;;;;;;;;9.70;99.90;;;7.50;93.41;101101.03;10544445;28;20354;-86
2022/10/05 00:08:45;;;;;;;;;;;9.60;99.90;;;7.45;93.63;101102.38;10542687;28;19928;-86
2022/10/05 00:13:48;;;;;;;;;;;9.60;99.90;;;7.38;93.47;101101.19;10543029;28;19929;-86
2022/10/05 00:18:52;;;;;;;;;;;9.50;99.90;;;7.30;93.60;101087.72;10542374;28;19928;-86
2022/10/05 00:23:56;;;;;;;;;;;9.40;99.90;;;7.22;93.46;101096.31;10543949;28;20019;-86
2022/10/05 00:28:59;;;;;;;;;;;9.30;99.90;;;7.12;93.63;101092.72;10528740;28;19928;-86
2022/10/05 00:34:02;;;;;;;;;;;9.20;99.90;;;7.07;93.87;101098.34;10543026;28;19928;-86
2022/10/05 00:39:05;;;;;;;;;;;9.10;99.90;;;7.03;93.70;101096.94;10535827;28;20023;-86
2022/10/05 00:44:41;;;;;;;;;;;9.10;99.90;;;6.91;93.60;101090.00;10509005;28;20384;-86
2022/10/05 00:50:13;;;;;;;;;;;9.00;99.90;;;6.84;94.08;101096.75;10503926;28;20015;-86
2022/10/05 00:55:39;;;;;;;;;;;8.90;99.90;;;6.74;94.23;101083.41;10485701;28;20020;-86
2022/10/05 01:01:10;;;;;;;;;;;8.80;99.90;;;6.64;93.89;101080.66;10501105;28;20027;-86
2022/10/05 01:06:34;;;;;;;;;;;8.70;99.90;;;6.53;94.11;101108.84;10511091;28;19935;-86
2022/10/05 01:11:55;;;;;;;;;;;8.60;99.90;;;6.47;94.42;101098.75;10516687;28;19928;-86
2022/10/05 01:17:03;;;;;;;;;;;8.50;99.90;;;6.52;95.26;101107.19;10541692;28;20019;-86
2022/10/05 01:22:26;;;;;;;;;;;8.60;99.90;;;6.58;95.31;101104.91;10524758;28;19928;-86
2022/10/05 01:27:41;;;;;;;;;;;8.60;99.90;;;6.62;95.29;101108.97;10535722;28;20054;-86
2022/10/05 01:32:44;;;;;;;;;;;8.70;99.90;;;6.61;95.24;101102.03;10540826;28;20354;-86
2022/10/05 01:38:08;;;;;;;;;;;8.70;99.90;;;6.59;95.53;101109.22;10518487;28;19997;-85
2022/10/05 01:43:10;;;;;;;;;;;8.70;99.90;;;6.59;95.65;101103.94;10534629;28;20047;-86
2022/10/05 01:48:37;;;;;;;;;;;8.70;99.90;;;6.53;95.46;101117.63;10541722;28;19934;-85
2022/10/05 01:54:02;;;;;;;;;;;8.70;99.90;;;6.48;95.43;101117.16;10523024;28;20408;-86
2022/10/05 01:59:43;;;;;;;;;;;8.60;99.90;;;6.38;95.31;101124.94;10540730;28;19928;-86
2022/10/05 02:04:56;;;;;;;;;;;8.50;99.90;;;6.27;95.40;101137.28;10469622;28;20359;-86
2022/10/05 02:10:11;;;;;;;;;;;8.40;99.90;;;6.13;95.52;101133.91;10522131;28;20401;-86
2022/10/05 02:15:17;;;;;;;;;;;8.30;99.90;;;6.08;95.78;101133.41;10539592;28;19978;-86
2022/10/05 02:20:30;;;;;;;;;;;8.20;99.90;;;6.03;95.73;101146.09;10523603;28;19928;-86
2022/10/05 02:25:37;;;;;;;;;;;8.10;99.90;;;5.98;96.01;101140.31;10522878;28;20307;-86
2022/10/05 02:30:51;;;;;;;;;;;8.10;99.90;;;5.95;96.00;101147.63;10538704;28;20362;-86
2022/10/05 02:36:00;;;;;;;;;;;8.00;99.90;;;5.93;96.20;101141.63;10541529;28;19979;-86
2022/10/05 02:41:21;;;;;;;;;;;8.00;99.90;;;5.86;96.21;101157.03;10522511;28;19963;-85
2022/10/05 02:46:53;;;;;;;;;;;8.00;99.90;;;5.82;96.48;101152.97;10525860;28;19935;-86
2022/10/05 02:52:20;;;;;;;;;;;7.90;99.90;;;5.81;96.60;101148.63;10502546;28;19979;-86
2022/10/05 02:57:39;;;;;;;;;;;7.90;99.90;;;5.75;96.44;101152.53;10536082;28;19928;-86
2022/10/05 03:02:50;;;;;;;;;;;7.90;99.90;;;5.74;96.74;101144.75;10520178;28;20276;-86
2022/10/05 03:08:08;;;;;;;;;;;7.80;99.90;;;5.71;96.72;101142.34;10524919;28;19934;-85
2022/10/05 03:13:29;;;;;;;;;;;7.80;99.90;;;5.63;96.87;101138.47;10523480;28;20006;-86
2022/10/05 03:18:44;;;;;;;;;;;7.70;99.90;;;5.58;96.90;101127.44;10537219;28;19952;-86
2022/10/05 03:24:47;;;;;;;;;;;7.70;99.90;;;5.48;96.86;101134.34;10527648;28;19928;-86
2022/10/05 03:30:02;;;;;;;;;;;7.60;99.90;;;5.44;96.85;101142.56;10352851;28;19929;-86
2022/10/05 03:35:16;;;;;;;;;;;7.50;99.90;;;5.34;96.84;101155.59;10510665;28;20011;-86
2022/10/05 03:40:54;;;;;;;;;;;7.50;99.90;;;5.33;97.01;101152.09;10544566;28;19937;-86
2022/10/05 03:46:16;;;;;;;;;;;7.40;99.90;;;5.32;97.21;101166.22;10508649;28;20311;-85
2022/10/05 03:51:33;;;;;;;;;;;7.40;99.90;;;5.28;97.20;101172.69;10533463;28;19928;-86
2022/10/05 03:56:42;;;;;;;;;;;7.40;99.90;;;5.22;97.20;101165.22;10544664;28;19936;-86
2022/10/05 04:02:06;;;;;;;;;;;7.30;99.90;;;5.21;97.48;101160.88;10544767;28;20451;-85
2022/10/05 04:07:20;;;;;;;;;;;7.30;99.90;;;5.21;97.60;101163.50;10528385;28;19935;-86
2022/10/05 04:12:33;;;;;;;;;;;7.30;99.90;;;5.21;97.65;101167.94;10528484;28;19928;-86
2022/10/05 04:17:43;;;;;;;;;;;7.30;99.90;;;5.16;97.44;101164.78;10535443;28;19928;-87
2022/10/05 04:23:03;;;;;;;;;;;7.30;99.90;;;5.18;97.94;101162.91;10540954;28;20449;-87
2022/10/05 04:28:11;;;;;;;;;;;7.30;99.90;;;5.18;97.92;101157.63;10526347;28;19936;-87
2022/10/05 04:33:14;;;;;;;;;;;7.30;99.90;;;5.13;97.89;101157.13;10544185;28;20379;-87
2022/10/05 04:38:29;;;;;;;;;;;7.30;99.90;;;5.10;97.84;101161.66;10536402;28;19959;-87
2022/10/05 04:43:58;;;;;;;;;;;7.20;99.90;;;5.07;97.87;101158.41;10543807;28;20402;-87
2022/10/05 04:49:19;;;;;;;;;;;7.20;99.90;;;5.05;98.02;101165.59;10542788;28;19928;-87
2022/10/05 04:54:52;;;;;;;;;;;7.20;99.90;;;5.03;98.37;101156.91;10544327;28;19928;-87
2022/10/05 05:00:04;;;;;;;;;;;7.20;99.90;;;5.03;98.00;101165.66;10490570;28;19928;-85
2022/10/05 05:05:44;;;;;;;;;;;7.20;99.90;;;5.02;98.28;101171.06;10526521;28;19935;-85
2022/10/05 05:11:18;;;;;;;;;;;7.20;99.90;;;5.02;98.35;101171.88;10544264;28;19928;-85
2022/10/05 05:16:43;;;;;;;;;;;7.20;99.90;;;5.03;98.48;101173.56;10534192;28;20019;-86
2022/10/05 05:22:17;;;;;;;;;;;7.20;99.90;;;5.09;98.81;101178.41;10512105;28;19936;-86
2022/10/05 05:27:22;;;;;;;;;;;7.20;99.90;;;5.15;98.75;101173.66;10522475;28;19928;-86
2022/10/05 05:32:45;;;;;;;;;;;7.30;99.90;;;5.23;99.01;101180.06;10540651;28;19929;-86
2022/10/05 05:38:03;;;;;;;;;;;7.30;99.90;;;5.35;99.40;101194.19;10522683;28;20407;-86
2022/10/05 05:43:21;;;;;;;;;;;7.50;99.90;;;5.46;99.48;101196.00;10543258;28;19928;-86
2022/10/05 05:48:38;;;;;;;;;;;7.60;99.90;;;5.66;99.79;101207.78;10542736;28;19935;-86
2022/10/05 05:54:12;;;;;;;;;;;7.70;99.90;;;5.85;100.00;101213.38;10527722;28;20073;-86
2022/10/05 05:59:21;;;;;;;;;;;7.90;99.90;;;6.08;100.00;101228.41;10540923;28;19935;-86
2022/10/05 06:04:29;;;;;;;;;;;8.20;99.90;;;6.30;100.00;101243.47;10542889;28;19928;-86
2022/10/05 06:09:35;;;;;;;;;;;8.40;99.90;;;6.55;100.00;101253.03;10543179;28;19912;-86
2022/10/05 06:14:56;;;;;;;;;;;8.60;99.90;;;6.79;100.00;101257.41;10545055;28;19967;-86
2022/10/05 06:20:02;;;;;;;;;;;8.90;99.90;;;7.03;100.00;101239.66;10542781;28;19982;-86
2022/10/05 06:25:10;;;;;;;;;;;9.10;99.90;;;7.27;100.00;101254.56;10524117;28;20017;-86
2022/10/05 06:30:15;;;;;;;;;;;9.40;99.90;;;7.47;100.00;101273.16;10542358;28;19932;-86
2022/10/05 06:35:41;;;;;;;;;;;9.50;99.90;;;7.65;100.00;101272.66;10523979;28;19928;-86
2022/10/05 06:41:06;;;;;;;;;;;9.70;99.90;;;7.83;100.00;101265.06;10534592;28;20024;-87
2022/10/05 06:46:17;;;;;;;;;;;10.00;99.90;;;8.02;100.00;101268.72;10513571;28;19929;-86
2022/10/05 06:51:28;;;;;;;;;;;10.20;99.90;;;8.21;100.00;101291.88;10524746;28;19936;-87
2022/10/05 06:56:45;;;;;;;;;;;10.30;99.90;;;8.42;100.00;101288.47;10527307;28;20019;-86
2022/10/05 07:02:07;;;;;;;;;;;10.50;99.90;;;8.65;100.00;101283.91;10519087;28;19928;-86
2022/10/05 07:07:18;;;;;;;;;;;10.70;99.90;;;8.85;100.00;101275.94;10548905;28;20052;-87
2022/10/05 07:12:42;;;;;;;;;;;10.90;99.90;;;9.02;100.00;101281.63;10547163;28;19928;-86
2022/10/05 07:17:45;;;;;;;;;;;11.10;99.90;;;9.25;100.00;101287.59;10545011;28;19932;-86
2022/10/05 07:22:53;;;;;;;;;;;11.40;99.90;;;9.48;99.17;101293.56;10547784;28;19934;-86
2022/10/05 07:28:07;;;;;;;;;;;11.60;99.90;;;9.73;98.72;101293.09;10542860;28;19928;-87
2022/10/05 07:33:48;;;;;;;;;;;11.80;99.90;;;10.01;98.14;101290.63;10543461;28;19975;-87
2022/10/05 07:39:07;;;;;;;;;;;12.10;99.90;;;10.23;96.52;101278.91;10545428;28;20014;-86
2022/10/05 07:44:30;;;;;;;;;;;12.40;99.90;;;10.49;95.75;101265.91;10535654;28;20051;-87
2022/10/05 07:50:02;;;;;;;;;;;12.60;99.90;;;10.75;94.59;101280.31;10547202;28;19928;-87
2022/10/05 07:55:16;;;;;;;;;;;12.90;99.90;;;10.95;93.38;101291.72;10506999;28;20404;-86
2022/10/05 08:00:21;;;;;;;;;;;13.10;99.90;;;11.12;91.99;101292.81;10537778;28;19978;-87
2022/10/05 08:05:39;;;;;;;;;;;13.20;99.90;;;11.28;90.83;101284.22;10546087;28;19975;-86
2022/10/05 08:10:58;;;;;;;;;;;13.40;99.90;;;11.41;89.65;101261.63;10547429;28;19935;-86
2022/10/05 08:16:05;;;;;;;;;;;13.60;99.90;;;11.64;89.36;101256.75;10496923;28;20020;-86
2022/10/05 08:21:10;;;;;;;;;;;13.80;99.90;;;11.94;88.77;101239.63;10541950;28;19934;-87
2022/10/05 08:26:33;;;;;;;;;;;14.00;99.90;;;12.26;87.88;101238.22;10510128;28;19928;-86
2022/10/05 08:31:39;;;;;;;;;;;14.30;99.90;;;12.55;86.77;101246.81;10515092;28;20281;-86
2022/10/05 08:36:54;;;;;;;;;;;14.70;99.90;;;12.70;85.02;101244.41;10524716;28;19936;-87
2022/10/05 08:42:48;;;;;;;;;;;14.80;99.90;;;12.66;83.17;101255.56;10531838;28;20020;-87
2022/10/05 08:48:28;;;;;;;;;;;14.90;99.90;;;12.55;82.81;101252.13;10503443;28;20360;-87
2022/10/05 08:53:37;;;;;;;;;;;14.80;99.90;;;12.66;82.50;101256.38;10508175;28;19929;-87
2022/10/05 08:59:01;;;;;;;;;;;14.90;99.90;;;12.85;82.20;101258.03;10504887;28;20019;-87
2022/10/05 09:04:16;;;;;;;;;;;15.00;99.90;;;13.13;80.98;101266.66;10542097;28;20469;-86
2022/10/05 09:09:32;;;;;;;;;;;15.30;99.90;;;13.40;80.30;101265.69;10517958;28;20399;-86
2022/10/05 09:14:50;;;;;;;;;;;15.50;99.90;;;13.60;79.01;101279.59;10513497;28;20387;-86
2022/10/05 09:20:20;;;;;;;;;;;15.80;99.90;;;13.78;77.84;101268.81;10545848;28;19932;-86
2022/10/05 09:26:04;;;;;;;;;;;16.00;99.90;;;14.07;78.28;101261.19;10527933;28;19929;-87
2022/10/05 09:31:27;;;;;;;;;;;16.20;99.90;;;14.38;76.90;101264.06;10536671;28;20307;-86
2022/10/05 09:37:08;;;;;;;;;;;16.50;99.90;;;14.68;74.45;101249.22;10503952;28;19968;-86
2022/10/05 09:42:29;;;;;;;;;;;16.90;99.90;;;14.82;73.67;101241.53;10504906;28;20583;-86
2022/10/05 09:47:44;;;;;;;;;;;17.10;99.90;;;14.87;73.32;101244.50;10503349;28;19928;-87
2022/10/05 09:53:05;;;;;;;;;;;17.10;99.90;;;14.80;72.48;101241.66;10510989;28;19972;-86
2022/10/05 09:58:21;;;;;;;;;;;17.10;99.90;;;14.90;71.90;101242.31;10509197;28;20314;-86
2022/10/05 10:03:45;;;;;;;;;;;17.10;99.90;;;15.27;71.62;101238.19;10543101;28;19928;-87
2022/10/05 10:08:51;;;;;;;;;;;17.50;99.90;;;15.83;71.22;101243.47;10541517;28;20399;-86
2022/10/05 10:14:13;;;;;;;;;;;18.00;99.90;;;16.29;69.08;101229.06;10520790;28;19959;-86
2022/10/05 10:19:30;;;;;;;;;;;18.40;99.90;;;16.63;67.96;101222.41;10542705;28;19928;-87
2022/10/05 10:25:11;;;;;;;;;;;18.80;98.30;;;16.89;65.77;101213.13;10540044;28;19935;-87
2022/10/05 10:30:42;;;;;;;;;;;19.00;96.90;;;17.09;64.32;101214.22;10529711;28;19932;-87
2022/10/05 10:35:57;;;;;;;;;;;19.20;95.90;;;17.25;62.99;101210.50;10526618;28;19967;-87
2022/10/05 10:41:26;;;;;;;;;;;19.40;96.30;;;17.59;62.04;101221.50;10511301;28;20019;-87
2022/10/05 10:46:44;;;;;;;;;;;19.70;94.40;;;17.91;59.15;101214.84;10542018;28;19928;-88
2022/10/05 10:52:14;;;;;;;;;;;20.00;92.50;;;17.72;56.83;101220.84;10525841;28;19928;-87
2022/10/05 10:57:41;;;;;;;;;;;19.80;91.80;;;17.50;57.09;101219.91;10539164;28;19928;-87
2022/10/05 11:03:26;;;;;;;;;;;19.70;91.10;;;17.59;57.49;101217.97;10539699;28;19936;-87
2022/10/05 11:08:56;;;;;;;;;;;19.70;91.70;;;17.89;57.26;101216.88;10502726;28;19935;-88
2022/10/05 11:14:05;;;;;;;;;;;19.90;89.20;;;17.99;54.33;101221.09;10512447;28;20412;-87
2022/10/05 11:19:45;;;;;;;;;;;20.10;86.80;;;17.97;55.14;101215.94;10509475;28;19937;-88
2022/10/05 11:25:08;;;;;;;;;;;20.10;87.10;;;18.22;55.14;101202.09;10526665;28;19928;-87
2022/10/05 11:30:36;;;;;;;;;;;20.40;87.20;;;18.36;54.09;101191.25;10543725;28;19928;-87
2022/10/05 11:36:17;;;;;;;;;;;20.60;84.70;;;18.49;53.34;101181.63;10540179;28;19928;-88
2022/10/05 11:41:32;;;;;;;;;;;20.70;82.80;;;18.85;53.98;101189.56;10492224;28;19932;-87
2022/10/05 11:46:38;;;;;;;;;;;21.10;83.50;;;19.06;52.61;101164.38;10543389;28;19929;-87
2022/10/05 11:51:47;;;;;;;;;;;21.30;80.70;;;19.13;51.52;101159.84;10525949;28;19975;-89
2022/10/05 11:57:06;;;;;;;;;;;21.40;81.20;;;19.30;53.34;101166.56;10504533;28;19928;-88
2022/10/05 12:02:18;;;;;;;;;;;21.60;81.10;;;19.15;51.81;101157.81;10489032;28;20392;-88
2022/10/05 12:07:27;;;;;;;;;;;21.60;79.80;;;19.06;52.04;101162.50;10510948;28;19928;-88
2022/10/05 12:12:36;;;;;;;;;;;21.40;78.50;;;18.86;52.97;101165.13;10541984;28;19936;-88
2022/10/05 12:18:05;;;;;;;;;;;21.10;78.50;;;18.68;52.64;101156.72;10526000;28;19974;-88
2022/10/05 12:23:29;;;;;;;;;;;20.90;79.70;;;18.44;53.18;101149.91;10531496;28;19936;-88
2022/10/05 12:28:37;;;;;;;;;;;20.70;78.70;;;18.39;55.96;101139.72;10543818;28;19978;-88
2022/10/05 12:33:55;;;;;;;;;;;20.50;82.50;;;18.37;57.59;101136.41;10541708;28;19979;-88
2022/10/05 12:39:20;;;;;;;;;;;20.50;84.20;;;18.31;58.67;101128.28;10538896;28;20023;-87
2022/10/05 12:44:41;;;;;;;;;;;20.50;84.80;;;18.28;59.09;101121.41;10534859;28;19928;-87
2022/10/05 12:50:14;;;;;;;;;;;20.40;85.60;;;18.22;60.10;101119.50;10535278;28;20304;-87
2022/10/05 12:55:31;;;;;;;;;;;20.30;86.80;;;18.16;60.43;101131.06;10510065;28;19928;-88
2022/10/05 13:00:39;;;;;;;;;;;20.30;87.90;;;18.03;60.89;101130.97;10535545;28;19939;-87
2022/10/05 13:06:09;;;;;;;;;;;20.20;88.00;;;17.81;61.15;101133.69;10539782;28;20023;-87
2022/10/05 13:11:19;;;;;;;;;;;20.00;88.30;;;17.73;62.47;101136.47;10494821;28;19928;-87
2022/10/05 13:16:33;;;;;;;;;;;19.80;89.90;;;17.65;63.04;101128.53;10546349;28;19935;-88
2022/10/05 13:21:48;;;;;;;;;;;19.70;90.30;;;17.59;62.79;101123.91;10544182;28;19929;-88
2022/10/05 13:26:53;;;;;;;;;;;19.70;90.20;;;17.56;62.47;101126.97;10546264;28;19929;-87
2022/10/05 13:32:03;;;;;;;;;;;19.60;90.00;;;17.48;61.96;101114.50;10536261;28;20449;-87
2022/10/05 13:37:16;;;;;;;;;;;19.50;90.00;;;17.39;62.26;101115.63;10510253;28;20023;-87
2022/10/05 13:42:36;;;;;;;;;;;19.50;90.00;;;17.34;62.91;101126.94;10526300;28;19934;-87
2022/10/05 13:47:51;;;;;;;;;;;19.50;90.30;;;17.35;62.27;101128.63;10533527;28;19928;-87
2022/10/05 13:53:24;;;;;;;;;;;19.40;90.10;;;17.35;61.80;101119.72;10534037;28;19951;-87
2022/10/05 13:58:46;;;;;;;;;;;19.40;90.00;;;17.33;61.54;101129.81;10528292;28;19928;-87
2022/10/05 14:04:23;;;;;;;;;;;19.40;89.20;;;17.33;61.28;101124.44;10538927;28;19981;-87
2022/10/05 14:09:32;;;;;;;;;;;19.40;89.20;;;17.33;61.42;101132.50;10528153;28;20063;-87
2022/10/05 14:14:46;;;;;;;;;;;19.40;89.00;;;17.33;60.72;101124.44;10501016;28;19932;-87
2022/10/05 14:19:50;;;;;;;;;;;19.40;88.30;;;17.32;61.12;101123.59;10528273;28;20399;-87
2022/10/05 14:25:06;;;;;;;;;;;19.40;89.00;;;17.33;61.27;101119.91;10541685;28;19935;-87
2022/10/05 14:30:09;;;;;;;;;;;19.40;88.80;;;17.28;60.11;101133.09;10542288;28;19935;-88
2022/10/05 14:35:19;;;;;;;;;;;19.40;87.40;;;17.21;60.22;101126.78;10524838;28;19929;-87
2022/10/05 14:40:36;;;;;;;;;;;19.30;87.30;;;17.13;60.07;101129.59;10538201;28;19932;-87
2022/10/05 14:45:52;;;;;;;;;;;19.30;86.60;;;17.06;60.29;101117.94;10511895;28;19935;-87
2022/10/05 14:50:58;;;;;;;;;;;19.20;86.80;;;16.96;60.37;101112.03;10515350;28;19934;-88
2022/10/05 14:56:28;;;;;;;;;;;19.10;87.40;;;16.89;61.37;101101.19;10538793;28;20391;-87
2022/10/05 15:01:34;;;;;;;;;;;19.00;88.30;;;16.81;62.72;101104.81;10531264;28;20020;-88
2022/10/05 15:07:04;;;;;;;;;;;18.90;89.30;;;16.76;63.82;101112.59;10515244;28;20007;-86
2022/10/05 15:12:07;;;;;;;;;;;18.90;90.00;;;16.66;64.52;101106.63;10515044;28;20014;-87
2022/10/05 15:17:16;;;;;;;;;;;18.80;90.40;;;16.57;64.71;101091.66;10527644;28;19964;-87
2022/10/05 15:22:30;;;;;;;;;;;18.70;90.40;;;16.46;65.00;101094.81;10534270;28;19978;-87
2022/10/05 15:27:52;;;;;;;;;;;18.60;90.70;;;16.38;66.72;101092.22;10534238;28;19979;-87
2022/10/05 15:33:42;;;;;;;;;;;18.50;91.30;;;16.25;67.63;101090.16;10523588;28;19928;-86
2022/10/05 15:38:54;;;;;;;;;;;18.40;91.50;;;16.09;67.67;101096.53;10504377;28;19928;-86
2022/10/05 15:44:35;;;;;;;;;;;18.20;91.80;;;15.96;68.83;101090.97;10537241;28;20012;-86
2022/10/05 15:49:49;;;;;;;;;;;18.10;92.10;;;15.82;69.21;101095.25;10532254;28;19936;-87
2022/10/05 15:55:13;;;;;;;;;;;17.90;92.30;;;15.71;70.10;101101.03;10509800;28;20311;-87
2022/10/05 16:00:18;;;;;;;;;;;17.80;92.60;;;15.57;70.92;101107.97;10541716;28;20019;-87
2022/10/05 16:11:00;;;;;;;;;;;17.50;93.10;;;15.29;72.12;101109.47;10537021;28;19928;-86
2022/10/05 16:16:06;;;;;;;;;;;17.30;93.40;;;15.13;72.60;101108.56;10543102;28;19975;-87
2022/10/05 16:21:29;;;;;;;;;;;17.10;93.90;;;14.95;73.61;101116.03;10536166;28;20432;-87
2022/10/05 16:26:55;;;;;;;;;;;16.90;94.50;;;14.76;74.37;101121.78;10529611;28;19928;-87
2022/10/05 16:32:17;;;;;;;;;;;16.70;94.90;;;14.57;74.95;101113.13;10527262;28;20050;-86
2022/10/05 16:37:24;;;;;;;;;;;16.50;95.10;;;14.43;75.61;101127.19;10544840;28;19928;-86
2022/10/05 16:42:34;;;;;;;;;;;16.40;95.50;;;14.26;75.74;101138.91;10542638;28;20054;-86
2022/10/05 16:48:08;;;;;;;;;;;16.20;96.30;;;14.07;76.41;101146.28;10516156;28;20398;-85
2022/10/05 16:53:16;;;;;;;;;;;16.00;96.40;;;13.90;77.17;101147.28;10528527;28;19928;-86
2022/10/05 16:58:31;;;;;;;;;;;15.80;96.80;;;13.71;77.82;101161.78;10534067;28;19929;-86
2022/10/05 17:03:56;;;;;;;;;;;15.70;97.30;;;13.59;78.31;101163.94;10534649;28;19928;-86
2022/10/05 17:09:33;;;;;;;;;;;15.50;97.10;;;13.46;79.36;101163.56;10543941;28;19928;-86
2022/10/05 17:14:42;;;;;;;;;;;15.40;97.70;;;13.29;79.61;101173.38;10517437;28;20027;-86
2022/10/05 17:19:45;;;;;;;;;;;15.20;97.80;;;13.21;80.16;101175.19;10518279;28;19951;-85
2022/10/05 17:25:11;;;;;;;;;;;15.10;98.00;;;13.08;80.34;101172.94;10525854;28;20315;-86
2022/10/05 17:30:26;;;;;;;;;;;15.00;98.60;;;12.91;81.14;101173.84;10528374;28;19936;-85
2022/10/05 17:35:55;;;;;;;;;;;14.80;99.10;;;12.75;81.33;101183.44;10530473;28;19928;-85
2022/10/05 17:41:08;;;;;;;;;;;14.70;99.70;;;12.61;81.94;101177.84;10535026;28;19928;-85
2022/10/05 17:46:11;;;;;;;;;;;14.50;99.90;;;12.48;82.18;101173.78;10522312;28;19982;-85
2022/10/05 17:56:48;;;;;;;;;;;14.30;99.90;;;12.28;83.25;101181.09;10528940;28;19935;-86
2022/10/05 18:02:21;;;;;;;;;;;14.20;99.90;;;12.22;83.73;101188.88;10539371;28;19929;-85
2022/10/05 18:07:24;;;;;;;;;;;14.10;99.90;;;12.10;84.27;101177.63;10502742;28;19936;-85
2022/10/05 18:12:39;;;;;;;;;;;14.00;99.90;;;12.00;84.29;101176.91;10540054;28;20350;-85
2022/10/05 18:17:56;;;;;;;;;;;13.90;99.90;;;11.88;84.44;101186.13;10529045;28;20359;-86
2022/10/05 18:23:01;;;;;;;;;;;13.80;99.90;;;11.77;84.88;101189.81;10540770;28;19934;-85
2022/10/05 18:28:41;;;;;;;;;;;13.70;99.90;;;11.68;85.38;101191.53;10534501;28;19932;-85
2022/10/05 18:33:59;;;;;;;;;;;13.60;99.90;;;11.60;85.83;101187.97;10533744;28;19928;-86
2022/10/05 18:39:39;;;;;;;;;;;13.50;99.90;;;11.53;86.23;101191.22;10507942;28;19928;-85
2022/10/05 18:44:43;;;;;;;;;;;13.50;99.90;;;11.43;86.28;101189.59;10500670;28;19958;-85
2022/10/05 18:50:01;;;;;;;;;;;13.40;99.90;;;11.35;86.64;101193.00;10518455;28;19932;-86
2022/10/05 18:55:32;;;;;;;;;;;13.30;99.90;;;11.30;87.21;101189.13;10534430;28;19967;-86
2022/10/05 19:01:20;;;;;;;;;;;13.20;99.90;;;11.20;87.37;101192.66;10539074;28;19966;-85
2022/10/05 19:06:23;;;;;;;;;;;13.20;99.90;;;11.15;87.71;101191.41;10536358;28;20303;-85
2022/10/05 19:11:37;;;;;;;;;;;13.10;99.90;;;11.07;87.93;101192.16;10538653;28;20244;-85
2022/10/05 19:17:05;;;;;;;;;;;13.00;99.90;;;11.03;88.57;101203.22;10537208;28;19952;-86
2022/10/05 19:22:27;;;;;;;;;;;13.00;99.90;;;10.92;88.56;101190.97;10533210;28;20018;-84
2022/10/05 19:27:44;;;;;;;;;;;12.90;99.90;;;10.88;88.96;101202.88;10541002;28;19958;-86
2022/10/05 19:33:15;;;;;;;;;;;12.80;99.90;;;10.83;89.19;101203.31;10541673;28;19928;-85
2022/10/05 19:38:18;;;;;;;;;;;12.70;99.90;;;10.80;89.56;101202.78;10542777;28;19934;-85
2022/10/05 19:43:37;;;;;;;;;;;12.70;99.90;;;10.75;89.74;101211.19;10529106;28;20341;-85
2022/10/05 19:48:44;;;;;;;;;;;12.70;99.90;;;10.71;90.00;101212.44;10541008;28;19932;-85
2022/10/05 19:53:48;;;;;;;;;;;12.60;99.90;;;10.66;90.17;101209.38;10510614;28;19935;-85
2022/10/05 19:58:56;;;;;;;;;;;12.60;99.90;;;10.62;90.17;101226.63;10547925;28;19975;-85
2022/10/05 20:03:59;;;;;;;;;;;12.60;99.90;;;10.56;90.53;101228.03;10547284;28;19978;-85
2022/10/05 20:09:18;;;;;;;;;;;12.50;99.90;;;10.56;90.71;101227.19;10544773;28;19928;-85
2022/10/05 20:14:32;;;;;;;;;;;12.50;99.90;;;10.51;90.91;101234.75;10530592;28;19929;-85
2022/10/05 20:25:00;;;;;;;;;;;12.40;99.90;;;10.37;91.05;101236.81;10540067;28;19928;-85
2022/10/05 20:30:04;;;;;;;;;;;12.40;99.90;;;10.30;91.16;101241.03;10539264;28;19928;-85
2022/10/05 20:35:07;;;;;;;;;;;12.30;99.90;;;10.25;91.83;101250.41;10508581;28;20408;-85
2022/10/05 20:40:13;;;;;;;;;;;12.20;99.90;;;10.24;91.92;101257.53;10536124;28;19929;-85
2022/10/05 20:45:16;;;;;;;;;;;12.20;99.90;;;10.17;92.20;101254.56;10516420;28;19928;-84
2022/10/05 20:50:21;;;;;;;;;;;12.10;99.90;;;10.18;92.34;101250.09;10529513;28;20477;-85
2022/10/05 20:55:30;;;;;;;;;;;12.10;99.90;;;10.15;92.45;101253.03;10537455;28;20011;-85
2022/10/05 21:01:14;;;;;;;;;;;12.10;99.90;;;10.12;92.62;101248.00;10533007;28;19987;-84
2022/10/05 21:05:55;;;;;;;;;;;12.10;99.90;;;10.11;92.96;101248.97;10537064;28;19928;-85
2022/10/05 21:10:58;;;;;;;;;;;12.10;99.90;;;10.06;92.76;101251.22;10535241;28;19978;-85
2022/10/05 21:16:01;;;;;;;;;;;12.00;99.90;;;9.99;92.95;101245.63;10537255;28;20395;-85
2022/10/05 21:21:04;;;;;;;;;;;12.00;99.90;;;9.94;92.97;101247.84;10516794;28;19929;-85
2022/10/05 21:26:06;;;;;;;;;;;11.90;99.90;;;9.87;93.17;101247.56;10522234;28;19928;-85
2022/10/05 21:31:09;;;;;;;;;;;11.80;99.90;;;9.81;93.15;101249.94;10529353;28;20354;-85
2022/10/05 21:36:15;;;;;;;;;;;11.80;99.90;;;9.73;93.24;101247.97;10540407;28;19958;-85
2022/10/05 21:41:19;;;;;;;;;;;11.70;99.90;;;9.69;93.42;101251.03;10541946;28;20019;-85
2022/10/05 21:46:25;;;;;;;;;;;11.70;99.90;;;9.65;93.60;101247.78;10539269;28;20311;-85
2022/10/05 21:51:28;;;;;;;;;;;11.60;99.90;;;9.60;93.88;101244.72;10522896;28;20475;-85
2022/10/05 21:56:34;;;;;;;;;;;11.60;99.90;;;9.58;93.81;101251.97;10530503;28;19928;-85
2022/10/05 22:01:37;;;;;;;;;;;11.50;99.90;;;9.55;94.03;101241.63;10541289;28;19928;-85
2022/10/05 22:06:39;;;;;;;;;;;11.50;99.90;;;9.51;94.09;101237.56;10539058;28;20315;-86
2022/10/05 22:11:46;;;;;;;;;;;11.40;99.90;;;9.48;94.23;101229.91;10512804;28;19934;-85
2022/10/05 22:16:49;;;;;;;;;;;11.40;99.90;;;9.45;94.54;101235.47;10521244;28;19932;-85
2022/10/05 22:21:51;;;;;;;;;;;11.40;99.90;;;9.41;94.63;101228.72;10507666;28;19928;-85
2022/10/05 22:26:55;;;;;;;;;;;11.40;99.90;;;9.37;94.79;101223.72;10541568;28;20019;-85
2022/10/05 22:31:57;;;;;;;;;;;11.30;99.90;;;9.39;94.73;101228.88;10523096;28;20387;-85
2022/10/05 22:37:01;;;;;;;;;;;11.40;99.90;;;9.38;95.15;101225.38;10535585;28;20007;-85
2022/10/05 22:42:05;;;;;;;;;;;11.30;99.90;;;9.40;95.13;101222.59;10526396;28;19932;-85
2022/10/05 22:47:08;;;;;;;;;;;11.40;99.90;;;9.37;95.12;101214.91;10540169;28;19932;-85
2022/10/05 22:52:11;;;;;;;;;;;11.40;99.90;;;9.35;95.33;101203.59;10524419;28;19977;-85
2022/10/05 23:03:31;;;;;;;;;;;11.30;99.90;;;9.36;95.59;101198.16;10528102;28;19929;-84
2022/10/05 23:08:35;;;;;;;;;;;11.30;99.90;;;9.38;95.93;101203.31;10516556;28;19935;-85
2022/10/05 23:13:39;;;;;;;;;;;11.40;99.90;;;9.38;95.90;101200.69;10541433;28;19934;-85
2022/10/05 23:18:42;;;;;;;;;;;11.30;99.90;;;9.39;95.75;101197.88;10539904;28;19982;-84
2022/10/05 23:23:47;;;;;;;;;;;11.40;99.90;;;9.36;96.26;101198.16;10523659;28;19936;-84
2022/10/05 23:28:50;;;;;;;;;;;11.30;99.90;;;9.34;96.19;101191.28;10524747;28;19963;-85
2022/10/05 23:33:53;;;;;;;;;;;11.30;99.90;;;9.35;96.15;101188.50;10537536;28;20280;-84
2022/10/05 23:38:56;;;;;;;;;;;11.40;99.90;;;9.33;96.30;101184.31;10535268;28;19929;-85
2022/10/05 23:43:59;;;;;;;;;;;11.30;99.90;;;9.28;96.49;101192.69;10510328;28;19936;-85
2022/10/05 23:49:02;;;;;;;;;;;11.30;99.90;;;9.24;96.32;101186.00;10543808;28;19929;-85
2022/10/05 23:54:05;;;;;;;;;;;11.30;99.90;;;9.24;96.49;101186.00;10526325;28;20411;-84
2022/10/05 23:59:07;;;;;;;;;;;11.20;99.90;;;9.22;96.86;101185.25;10527989;28;19935;-85
